Lowlands Opal — 9V5329 — position and weather

sailwx.info

Track history (hours):
 
Tides and Currents Weather Stations Pressure Air Temp Water Temp Dewpoint Dewpoint Depression Visibility Wind Speed Wind Dir Waves Ship Positions

Lowlands Opal

Last reported at 2017-Oct-17 10:00 UTC. Time now 2017-Oct-17 10:06 UTC.
Position N 53°38' W 000°12'.

Length 190 m; draft 12.6 m.

Type: Cargo ship. MMSI: 563012100.

Date/timePositionNaut miles runAvg speedWind from/ knotsBaromVisibWave heightAir tempDewpointWater temp
2017-Oct-17 10:00N 53°38' W 000°12'0 0.0
2017-Oct-17 09:30N 53°38' W 000°12'0 0.0
2017-Oct-17 09:00N 53°38' W 000°12'0 0.0
2017-Oct-17 08:30N 53°38' W 000°12'0 0.0
2017-Oct-17 08:00N 53°38' W 000°12'0 0.0
2017-Oct-17 07:27N 53°38' W 000°12'0 0.0
2017-Oct-17 07:00N 53°38' W 000°12'0 0.0
2017-Oct-17 06:30N 53°38' W 000°12'0 0.0
2017-Oct-17 06:00N 53°38' W 000°12'0 0.0
2017-Oct-17 05:30N 53°38' W 000°12'0 0.0
2017-Oct-17 05:00N 53°38' W 000°12'0 0.0
2017-Oct-17 04:30N 53°38' W 000°12'0 0.0
2017-Oct-17 04:00N 53°38' W 000°12'0 0.0
2017-Oct-17 03:12N 53°38' W 000°12'0 0.0
2017-Oct-17 03:00N 53°38' W 000°12'0 0.0
2017-Oct-17 02:30N 53°38' W 000°12'0 0.0
2017-Oct-17 02:00N 53°38' W 000°12'0 0.0
2017-Oct-17 01:30N 53°38' W 000°12'0 0.0
2017-Oct-17 01:00N 53°38' W 000°12'0 0.0
2017-Oct-17 00:30N 53°38' W 000°12'0 0.0
2017-Oct-16 23:54N 53°38' W 000°12'0 0.0
2017-Oct-16 23:30N 53°38' W 000°12'0 0.0
2017-Oct-16 23:00N 53°38' W 000°12'0 0.0
2017-Oct-16 22:30N 53°38' W 000°12'0 0.0
2017-Oct-16 21:57N 53°38' W 000°12'0 0.0
2017-Oct-16 21:30N 53°38' W 000°12'0 0.0
2017-Oct-16 21:00N 53°38' W 000°12'0 0.0
2017-Oct-16 20:24N 53°38' W 000°12'0 0.0
2017-Oct-16 19:57N 53°38' W 000°12'0 0.0
2017-Oct-16 19:27N 53°38' W 000°12'0 0.0
2017-Oct-16 19:00N 53°38' W 000°12'0 0.0
2017-Oct-16 18:30N 53°38' W 000°12'0 0.0
2017-Oct-16 17:51N 53°38' W 000°12'0 0.0
2017-Oct-16 17:00N 53°38' W 000°12'0 0.0
2017-Oct-16 16:30N 53°38' W 000°12'0 0.0
2017-Oct-16 16:00N 53°38' W 000°12'1 1.2
2017-Oct-16 15:30N 53°38' W 000°11'2 4.8
2017-Oct-16 15:00N 53°37' W 000°07'3 6.1
2017-Oct-16 14:30N 53°37' W 000°02'17 5.7
2017-Oct-16 11:28N 53°42' E 000°26'3 5.6
2017-Oct-16 11:00N 53°43' E 000°30'3 5.4
2017-Oct-16 10:29N 53°45' E 000°33'3 5.1
2017-Oct-16 09:49N 53°48' E 000°37'2 5.0
2017-Oct-16 09:26N 53°49' E 000°40'3 6.0
2017-Oct-16 08:54N 53°50' E 000°44'4 4.5
2017-Oct-16 08:05N 53°51' E 000°51'0 4.7
2017-Oct-16 07:59N 53°51' E 000°51'76 9.0
2017-Oct-15 23:33N 53°19' E 002°47'211.7
2017-Oct-15 23:24N 53°17' E 002°47'711.9
2017-Oct-15 22:46N 53°10' E 002°46'511.7
2017-Oct-15 22:22N 53°05' E 002°46'911.6
2017-Oct-15 21:38N 52°56' E 002°45'211.3
2017-Oct-15 21:30N 52°55' E 002°45'711.2
2017-Oct-15 20:50N 52°47' E 002°44'410.9
2017-Oct-15 20:29N 52°44' E 002°44'510.6
2017-Oct-15 20:00N 52°39' E 002°43'510.4
2017-Oct-15 19:30N 52°33' E 002°43'510.1
2017-Oct-15 18:59N 52°28' E 002°42'5 9.9
2017-Oct-15 18:30N 52°23' E 002°42'5 9.8
2017-Oct-15 18:00N 52°18' E 002°42'5 9.8
2017-Oct-15 17:30N 52°14' E 002°41'5 9.7
2017-Oct-15 16:57N 52°08' E 002°40'4 9.8
2017-Oct-15 16:30N 52°04' E 002°39'510.0
2017-Oct-15 16:00N 51°59' E 002°38'510.4
2017-Oct-15 15:29N 51°54' E 002°37'510.7
2017-Oct-15 15:00N 51°49' E 002°36'1110.6
2017-Oct-15 14:00N 51°39' E 002°27'611.3
2017-Oct-15 13:30N 51°35' E 002°21'611.5
2017-Oct-15 12:59N 51°31' E 002°15'611.9
2017-Oct-15 12:30N 51°26' E 002°09'611.2
2017-Oct-15 12:00N 51°21' E 002°08'611.1
2017-Oct-15 11:30N 51°15' E 002°07'510.8
2017-Oct-15 11:00N 51°12' E 001°60'510.9
2017-Oct-15 10:30N 51°09' E 001°53'611.1
2017-Oct-15 10:00N 51°06' E 001°45'611.5
2017-Oct-15 09:30N 51°02' E 001°39'611.8
2017-Oct-15 09:00N 50°58' E 001°32'611.5
2017-Oct-15 08:30N 50°54' E 001°27'611.1
2017-Oct-15 08:00N 50°48' E 001°24'510.6
2017-Oct-15 07:30N 50°43' E 001°22'510.0
2017-Oct-15 07:00N 50°39' E 001°17'510.1
2017-Oct-15 06:30N 50°36' E 001°11'5 9.9
2017-Oct-15 06:00N 50°33' E 001°05'5 9.9
2017-Oct-15 05:30N 50°30' E 000°59'510.1
2017-Oct-15 05:00N 50°28' E 000°51'510.1
2017-Oct-15 04:30N 50°27' E 000°44'510.2
2017-Oct-15 04:00N 50°25' E 000°36'510.1
2017-Oct-15 03:29N 50°24' E 000°28'510.0
2017-Oct-15 03:00N 50°22' E 000°21'5 9.7
2017-Oct-15 02:30N 50°21' E 000°14'5 9.4
2017-Oct-15 02:00N 50°19' E 000°07'4 9.0
2017-Oct-15 01:30N 50°18' W 000°00'4 8.8
2017-Oct-15 01:00N 50°17' W 000°07'4 8.5
2017-Oct-15 00:30N 50°16' W 000°13'4 8.2
2017-Oct-15 00:00N 50°15' W 000°19'4 7.9
2017-Oct-14 23:30N 50°14' W 000°26'4 7.7
2017-Oct-14 23:00N 50°13' W 000°31'4 7.5
2017-Oct-14 22:30N 50°12' W 000°37'4 7.3
2017-Oct-14 22:00N 50°11' W 000°42'4 7.2
2017-Oct-14 21:28N 50°10' W 000°48'4 7.2
2017-Oct-14 20:59N 50°09' W 000°54'3 7.4
2017-Oct-14 20:30N 50°09' W 000°59'4 7.6
2017-Oct-14 20:00N 50°08' W 001°05'4 8.0
2017-Oct-14 19:30N 50°07' W 001°11'4 8.6
2017-Oct-14 19:00N 50°06' W 001°17'5 9.2
2017-Oct-14 18:30N 50°04' W 001°24'510.1
2017-Oct-14 18:00N 50°03' W 001°32'611.2
2017-Oct-14 17:30N 50°02' W 001°40'612.1
2017-Oct-14 17:00N 50°00' W 001°49'612.8
2017-Oct-14 16:30N 49°59' W 001°59'713.0
2017-Oct-14 15:59N 49°57' W 002°09'713.0
2017-Oct-14 15:29N 49°55' W 002°19'612.8
2017-Oct-14 15:00N 49°54' W 002°28'612.4
2017-Oct-14 14:30N 49°52' W 002°37'612.2
2017-Oct-14 14:00N 49°51' W 002°47'611.9
2017-Oct-14 13:30N 49°50' W 002°56'811.8
2017-Oct-14 12:52N 49°49' W 003°07'411.7
2017-Oct-14 12:30N 49°48' W 003°14'611.6
2017-Oct-14 12:00N 49°48' W 003°23'611.4
2017-Oct-14 11:30N 49°47' W 003°31'611.2
2017-Oct-14 11:00N 49°46' W 003°40'611.1
2017-Oct-14 10:30N 49°46' W 003°48'511.0
2017-Oct-14 10:00N 49°45' W 003°57'510.8
2017-Oct-14 09:30N 49°45' W 004°05'510.8
2017-Oct-14 09:00N 49°44' W 004°14'510.8
2017-Oct-14 08:30N 49°44' W 004°22'510.7
2017-Oct-14 08:00N 49°43' W 004°30'510.6
2017-Oct-14 07:30N 49°43' W 004°38'510.6
2017-Oct-14 07:00N 49°42' W 004°46'510.5
2017-Oct-14 06:30N 49°42' W 004°54'510.6
2017-Oct-14 06:00N 49°42' W 005°03'510.6
2017-Oct-14 05:30N 49°41' W 005°11'510.3
2017-Oct-14 04:58N 49°40' W 005°19'5 9.9
2017-Oct-14 04:30N 49°40' W 005°26'5 9.6
2017-Oct-14 04:00N 49°39' W 005°34'510.1
2017-Oct-14 03:29N 49°39' W 005°42'510.5
2017-Oct-14 03:00N 49°38' W 005°50'711.0
2017-Oct-14 02:23N 49°38' W 005°60'3511.1
2017-Oct-13 23:13N 49°40' W 006°54'311.3
2017-Oct-13 22:57N 49°40' W 006°59'611.2
2017-Oct-13 22:22N 49°41' W 007°09'511.1
2017-Oct-13 21:58N 49°42' W 007°16'1211.1
2017-Oct-13 20:55N 49°43' W 007°34'  
Track history (hours):
 
Tides and Currents Weather Stations Pressure Air Temp Water Temp Dewpoint Dewpoint Depression Visibility Wind Speed Wind Dir Waves Ship Positions

Lowlands Opal

Last reported at 2017-Oct-17 10:00 UTC. Time now 2017-Oct-17 10:06 UTC.
Position N 53°38' W 000°12'.

Length 190 m; draft 12.6 m.

Type: Cargo ship. MMSI: 563012100.

Date/timePositionNaut miles runAvg speedWind from/ knotsBaromVisibWave heightAir tempDewpointWater temp
2017-Oct-17 10:00N 53°38' W 000°12'0 0.0
2017-Oct-17 09:30N 53°38' W 000°12'0 0.0
2017-Oct-17 09:00N 53°38' W 000°12'0 0.0
2017-Oct-17 08:30N 53°38' W 000°12'0 0.0
2017-Oct-17 08:00N 53°38' W 000°12'0 0.0
2017-Oct-17 07:27N 53°38' W 000°12'0 0.0
2017-Oct-17 07:00N 53°38' W 000°12'0 0.0
2017-Oct-17 06:30N 53°38' W 000°12'0 0.0
2017-Oct-17 06:00N 53°38' W 000°12'0 0.0
2017-Oct-17 05:30N 53°38' W 000°12'0 0.0
2017-Oct-17 05:00N 53°38' W 000°12'0 0.0
2017-Oct-17 04:30N 53°38' W 000°12'0 0.0
2017-Oct-17 04:00N 53°38' W 000°12'0 0.0
2017-Oct-17 03:12N 53°38' W 000°12'0 0.0
2017-Oct-17 03:00N 53°38' W 000°12'0 0.0
2017-Oct-17 02:30N 53°38' W 000°12'0 0.0
2017-Oct-17 02:00N 53°38' W 000°12'0 0.0
2017-Oct-17 01:30N 53°38' W 000°12'0 0.0
2017-Oct-17 01:00N 53°38' W 000°12'0 0.0
2017-Oct-17 00:30N 53°38' W 000°12'0 0.0
2017-Oct-16 23:54N 53°38' W 000°12'0 0.0
2017-Oct-16 23:30N 53°38' W 000°12'0 0.0
2017-Oct-16 23:00N 53°38' W 000°12'0 0.0
2017-Oct-16 22:30N 53°38' W 000°12'0 0.0
2017-Oct-16 21:57N 53°38' W 000°12'0 0.0
2017-Oct-16 21:30N 53°38' W 000°12'0 0.0
2017-Oct-16 21:00N 53°38' W 000°12'0 0.0
2017-Oct-16 20:24N 53°38' W 000°12'0 0.0
2017-Oct-16 19:57N 53°38' W 000°12'0 0.0
2017-Oct-16 19:27N 53°38' W 000°12'0 0.0
2017-Oct-16 19:00N 53°38' W 000°12'0 0.0
2017-Oct-16 18:30N 53°38' W 000°12'0 0.0
2017-Oct-16 17:51N 53°38' W 000°12'0 0.0
2017-Oct-16 17:00N 53°38' W 000°12'0 0.0
2017-Oct-16 16:30N 53°38' W 000°12'0 0.0
2017-Oct-16 16:00N 53°38' W 000°12'1 1.2
2017-Oct-16 15:30N 53°38' W 000°11'2 4.8
2017-Oct-16 15:00N 53°37' W 000°07'3 6.1
2017-Oct-16 14:30N 53°37' W 000°02'17 5.7
2017-Oct-16 11:28N 53°42' E 000°26'3 5.6
2017-Oct-16 11:00N 53°43' E 000°30'3 5.4
2017-Oct-16 10:29N 53°45' E 000°33'3 5.1
2017-Oct-16 09:49N 53°48' E 000°37'2 5.0
2017-Oct-16 09:26N 53°49' E 000°40'3 6.0
2017-Oct-16 08:54N 53°50' E 000°44'4 4.5
2017-Oct-16 08:05N 53°51' E 000°51'0 4.7
2017-Oct-16 07:59N 53°51' E 000°51'76 9.0
2017-Oct-15 23:33N 53°19' E 002°47'211.7
2017-Oct-15 23:24N 53°17' E 002°47'711.9
2017-Oct-15 22:46N 53°10' E 002°46'511.7
2017-Oct-15 22:22N 53°05' E 002°46'911.6
2017-Oct-15 21:38N 52°56' E 002°45'211.3
2017-Oct-15 21:30N 52°55' E 002°45'711.2
2017-Oct-15 20:50N 52°47' E 002°44'410.9
2017-Oct-15 20:29N 52°44' E 002°44'510.6
2017-Oct-15 20:00N 52°39' E 002°43'510.4
2017-Oct-15 19:30N 52°33' E 002°43'510.1
2017-Oct-15 18:59N 52°28' E 002°42'5 9.9
2017-Oct-15 18:30N 52°23' E 002°42'5 9.8
2017-Oct-15 18:00N 52°18' E 002°42'5 9.8
2017-Oct-15 17:30N 52°14' E 002°41'5 9.7
2017-Oct-15 16:57N 52°08' E 002°40'4 9.8
2017-Oct-15 16:30N 52°04' E 002°39'510.0
2017-Oct-15 16:00N 51°59' E 002°38'510.4
2017-Oct-15 15:29N 51°54' E 002°37'510.7
2017-Oct-15 15:00N 51°49' E 002°36'1110.6
2017-Oct-15 14:00N 51°39' E 002°27'611.3
2017-Oct-15 13:30N 51°35' E 002°21'611.5
2017-Oct-15 12:59N 51°31' E 002°15'611.9
2017-Oct-15 12:30N 51°26' E 002°09'611.2
2017-Oct-15 12:00N 51°21' E 002°08'611.1
2017-Oct-15 11:30N 51°15' E 002°07'510.8
2017-Oct-15 11:00N 51°12' E 001°60'510.9
2017-Oct-15 10:30N 51°09' E 001°53'611.1
2017-Oct-15 10:00N 51°06' E 001°45'611.5
2017-Oct-15 09:30N 51°02' E 001°39'611.8
2017-Oct-15 09:00N 50°58' E 001°32'611.5
2017-Oct-15 08:30N 50°54' E 001°27'611.1
2017-Oct-15 08:00N 50°48' E 001°24'510.6
2017-Oct-15 07:30N 50°43' E 001°22'510.0
2017-Oct-15 07:00N 50°39' E 001°17'510.1
2017-Oct-15 06:30N 50°36' E 001°11'5 9.9
2017-Oct-15 06:00N 50°33' E 001°05'5 9.9
2017-Oct-15 05:30N 50°30' E 000°59'510.1
2017-Oct-15 05:00N 50°28' E 000°51'510.1
2017-Oct-15 04:30N 50°27' E 000°44'510.2
2017-Oct-15 04:00N 50°25' E 000°36'510.1
2017-Oct-15 03:29N 50°24' E 000°28'510.0
2017-Oct-15 03:00N 50°22' E 000°21'5 9.7
2017-Oct-15 02:30N 50°21' E 000°14'5 9.4
2017-Oct-15 02:00N 50°19' E 000°07'4 9.0
2017-Oct-15 01:30N 50°18' W 000°00'4 8.8
2017-Oct-15 01:00N 50°17' W 000°07'4 8.5
2017-Oct-15 00:30N 50°16' W 000°13'4 8.2
2017-Oct-15 00:00N 50°15' W 000°19'4 7.9
2017-Oct-14 23:30N 50°14' W 000°26'4 7.7
2017-Oct-14 23:00N 50°13' W 000°31'4 7.5
2017-Oct-14 22:30N 50°12' W 000°37'4 7.3
2017-Oct-14 22:00N 50°11' W 000°42'4 7.2
2017-Oct-14 21:28N 50°10' W 000°48'4 7.2
2017-Oct-14 20:59N 50°09' W 000°54'3 7.4
2017-Oct-14 20:30N 50°09' W 000°59'4 7.6
2017-Oct-14 20:00N 50°08' W 001°05'4 8.0
2017-Oct-14 19:30N 50°07' W 001°11'4 8.6
2017-Oct-14 19:00N 50°06' W 001°17'5 9.2
2017-Oct-14 18:30N 50°04' W 001°24'510.1
2017-Oct-14 18:00N 50°03' W 001°32'611.2
2017-Oct-14 17:30N 50°02' W 001°40'612.1
2017-Oct-14 17:00N 50°00' W 001°49'612.8
2017-Oct-14 16:30N 49°59' W 001°59'713.0
2017-Oct-14 15:59N 49°57' W 002°09'713.0
2017-Oct-14 15:29N 49°55' W 002°19'612.8
2017-Oct-14 15:00N 49°54' W 002°28'612.4
2017-Oct-14 14:30N 49°52' W 002°37'612.2
2017-Oct-14 14:00N 49°51' W 002°47'611.9
2017-Oct-14 13:30N 49°50' W 002°56'811.8
2017-Oct-14 12:52N 49°49' W 003°07'411.7
2017-Oct-14 12:30N 49°48' W 003°14'611.6
2017-Oct-14 12:00N 49°48' W 003°23'611.4
2017-Oct-14 11:30N 49°47' W 003°31'611.2
2017-Oct-14 11:00N 49°46' W 003°40'611.1
2017-Oct-14 10:30N 49°46' W 003°48'511.0
2017-Oct-14 10:00N 49°45' W 003°57'510.8
2017-Oct-14 09:30N 49°45' W 004°05'510.8
2017-Oct-14 09:00N 49°44' W 004°14'510.8
2017-Oct-14 08:30N 49°44' W 004°22'510.7
2017-Oct-14 08:00N 49°43' W 004°30'510.6
2017-Oct-14 07:30N 49°43' W 004°38'510.6
2017-Oct-14 07:00N 49°42' W 004°46'510.5
2017-Oct-14 06:30N 49°42' W 004°54'510.6
2017-Oct-14 06:00N 49°42' W 005°03'510.6
2017-Oct-14 05:30N 49°41' W 005°11'510.3
2017-Oct-14 04:58N 49°40' W 005°19'5 9.9
2017-Oct-14 04:30N 49°40' W 005°26'5 9.6
2017-Oct-14 04:00N 49°39' W 005°34'510.1
2017-Oct-14 03:29N 49°39' W 005°42'510.5
2017-Oct-14 03:00N 49°38' W 005°50'711.0
2017-Oct-14 02:23N 49°38' W 005°60'3511.1
2017-Oct-13 23:13N 49°40' W 006°54'311.3
2017-Oct-13 22:57N 49°40' W 006°59'611.2
2017-Oct-13 22:22N 49°41' W 007°09'511.1
2017-Oct-13 21:58N 49°42' W 007°16'1211.1
2017-Oct-13 20:55N 49°43' W 007°34'  

Dump ship's entire track history